KONZ

Details ICAO KONZ
Name [X] Grosse Ile Muni
Region United States
Timezone America/Detroit (UTC-5.0)
Plans Departing 7
Arriving 1
Stats Elevation 591 ft / 180 m (AMSL)
Location 42.099078° -83.161640°
Runways 2
Magnetic Variation 7.417° W
Sunrise 2017-12-18 12:57:29 UTC / 2017-12-18 07:57:29 Local
Sunset 2017-12-18 22:03:57 UTC / 2017-12-18 17:03:57 Local
Advertisement - Login to hide

Runways

ID Width Length Bearing (true) Bearing (mag) Surface Threshold Offset Overrun Length
04 98 ft / 30 m 4,848 ft / 1,478 m 30.24° 37.66° Concrete 446 ft / 136 m 0 ft / 0 m
17 75 ft / 23 m 4,430 ft / 1,350 m 166.84° 174.26° Concrete 676 ft / 206 m 0 ft / 0 m
22 98 ft / 30 m 4,848 ft / 1,478 m 210.25° 217.67° Concrete 427 ft / 130 m 0 ft / 0 m
35 75 ft / 23 m 4,430 ft / 1,350 m 346.84° 354.26° Concrete 0 ft / 0 m 0 ft / 0 m

Map

Weather


0- 5 10 15 20 25 30 35+ Temperature / ° C

Clouds and Precipitation
Forecast for 2017-12-18 18:00 UTC. Updated 11 minutes ago

Ground ~20,000 ft ~40,000 ft Winds

METAR

KONZ 181335Z AUTO 19005KT 3SM BR OVC011 02/01 A2996 RMK AO2 T00180009

TAF

Not found
Warning: Do not use this data for real-world aviation or navigation. No guarantee of current accuracy is given.